Time;durP1;ratioP1;P1;durP2;ratioP2;P2;SDS_P1;SDS_P2;PMS_P1;PMS_P2;Temp;Humidity;BMP_temperature;BMP_pressure;BME280_temperature;BME280_humidity;BME280_pressure;Samples;Min_cycle;Max_cycle;Signal;HPM_P1;HPM_P2
2023/08/06 00:00:06;;;;;;;0.93;0.90;;;;;;;;;;5015453;28;20439;-78
2023/08/06 00:02:35;;;;;;;1.90;1.23;;;;;;;;;;5024572;28;20433;-76
2023/08/06 00:05:02;;;;;;;1.40;1.30;;;;;;;;;;5023147;28;20969;-78
2023/08/06 00:07:29;;;;;;;0.80;0.80;;;;;;;;;;5000003;28;20457;-77
2023/08/06 00:09:56;;;;;;;0.90;0.70;;;;;;;;;;5014249;28;20809;-78
2023/08/06 00:12:22;;;;;;;1.53;0.80;;;;;;;;;;5016047;28;20487;-78
2023/08/06 00:14:49;;;;;;;0.77;0.70;;;;;;;;;;5015599;28;20448;-78
2023/08/06 00:17:16;;;;;;;1.00;0.80;;;;;;;;;;5014788;28;20440;-76
2023/08/06 00:19:44;;;;;;;0.80;0.70;;;;;;;;;;5009536;28;20477;-77
2023/08/06 00:22:11;;;;;;;1.43;1.33;;;;;;;;;;5015678;28;20566;-79
2023/08/06 00:24:37;;;;;;;0.77;0.73;;;;;;;;;;5009052;28;20837;-77
2023/08/06 00:27:04;;;;;;;1.10;0.83;;;;;;;;;;5009314;28;20438;-78
2023/08/06 00:29:31;;;;;;;1.13;1.03;;;;;;;;;;5014258;28;21008;-79
2023/08/06 00:31:58;;;;;;;1.10;1.00;;;;;;;;;;5029275;28;20438;-77
2023/08/06 00:34:24;;;;;;;1.10;1.00;;;;;;;;;;5025677;28;20994;-78
2023/08/06 00:36:53;;;;;;;1.03;0.93;;;;;;;;;;5014139;28;20445;-78
2023/08/06 00:39:20;;;;;;;1.10;0.83;;;;;;;;;;5013005;28;20949;-77
2023/08/06 00:41:46;;;;;;;1.83;1.43;;;;;;;;;;5026263;28;20453;-77
2023/08/06 00:44:13;;;;;;;0.80;0.80;;;;;;;;;;5009895;28;20479;-78
2023/08/06 00:46:40;;;;;;;1.03;1.03;;;;;;;;;;4998154;28;21019;-78
2023/08/06 00:49:07;;;;;;;1.67;1.57;;;;;;;;;;5007770;28;20424;-77
2023/08/06 00:51:34;;;;;;;0.80;0.80;;;;;;;;;;5021791;28;20945;-79
2023/08/06 00:54:04;;;;;;;0.97;0.73;;;;;;;;;;5014838;28;20471;-79
2023/08/06 00:56:31;;;;;;;0.70;0.70;;;;;;;;;;5007821;28;20449;-79
2023/08/06 00:58:58;;;;;;;1.80;1.10;;;;;;;;;;5013206;28;20532;-79
2023/08/06 01:01:25;;;;;;;1.00;0.90;;;;;;;;;;5024797;28;20434;-79
2023/08/06 01:03:52;;;;;;;0.87;0.87;;;;;;;;;;5010718;28;20497;-78
2023/08/06 01:06:23;;;;;;;1.20;0.97;;;;;;;;;;5007752;28;20550;-77
2023/08/06 01:08:54;;;;;;;1.00;0.70;;;;;;;;;;5007980;28;20455;-78
2023/08/06 01:11:26;;;;;;;0.80;0.80;;;;;;;;;;5015372;28;20848;-79
2023/08/06 01:13:57;;;;;;;0.93;0.83;;;;;;;;;;5027002;28;20451;-79
2023/08/06 01:16:23;;;;;;;1.00;0.90;;;;;;;;;;5015422;28;20483;-77
2023/08/06 01:18:51;;;;;;;1.10;0.87;;;;;;;;;;5000399;28;20459;-78
2023/08/06 01:21:19;;;;;;;1.10;1.00;;;;;;;;;;5014063;28;20469;-78
2023/08/06 01:23:46;;;;;;;0.90;0.90;;;;;;;;;;4990790;28;20465;-79
2023/08/06 01:26:15;;;;;;;0.73;0.73;;;;;;;;;;5025107;28;20503;-80
2023/08/06 01:28:46;;;;;;;0.80;0.80;;;;;;;;;;4998331;28;20440;-78
2023/08/06 01:31:15;;;;;;;0.73;0.73;;;;;;;;;;5023219;28;20883;-79
2023/08/06 01:33:44;;;;;;;0.80;0.80;;;;;;;;;;4995295;28;20441;-80
2023/08/06 01:36:11;;;;;;;0.80;0.80;;;;;;;;;;5010329;28;20426;-81
2023/08/06 01:38:39;;;;;;;1.77;1.23;;;;;;;;;;5024418;28;20450;-80
2023/08/06 01:41:05;;;;;;;1.30;1.20;;;;;;;;;;5023888;28;20490;-80
2023/08/06 01:43:32;;;;;;;1.00;0.90;;;;;;;;;;5014584;28;20444;-80
2023/08/06 01:45:59;;;;;;;1.13;0.97;;;;;;;;;;5007507;28;20548;-77
2023/08/06 01:48:25;;;;;;;1.67;1.50;;;;;;;;;;5020831;28;20807;-79
2023/08/06 01:50:52;;;;;;;2.03;1.60;;;;;;;;;;5009690;28;20483;-80
2023/08/06 01:53:18;;;;;;;0.80;0.80;;;;;;;;;;5009443;28;20474;-78
2023/08/06 01:55:49;;;;;;;5.37;2.00;;;;;;;;;;5024278;28;20489;-79
2023/08/06 01:58:16;;;;;;;1.47;1.37;;;;;;;;;;5021053;28;20584;-79
2023/08/06 02:00:42;;;;;;;1.67;0.90;;;;;;;;;;5022998;28;20842;-80
2023/08/06 02:03:09;;;;;;;1.30;1.07;;;;;;;;;;5006429;28;20441;-81
2023/08/06 02:05:35;;;;;;;1.23;1.17;;;;;;;;;;5007876;28;20484;-80
2023/08/06 02:08:03;;;;;;;0.83;0.83;;;;;;;;;;5013092;28;20468;-81
2023/08/06 02:10:30;;;;;;;1.13;1.00;;;;;;;;;;5024300;28;20440;-78
2023/08/06 02:12:58;;;;;;;1.63;1.00;;;;;;;;;;5014636;28;20448;-79
2023/08/06 02:15:24;;;;;;;1.60;0.90;;;;;;;;;;5012308;28;20461;-80
2023/08/06 02:17:51;;;;;;;0.70;0.67;;;;;;;;;;5007690;28;20479;-79
2023/08/06 02:20:18;;;;;;;0.80;0.70;;;;;;;;;;5014185;28;20460;-81
2023/08/06 02:22:44;;;;;;;0.70;0.70;;;;;;;;;;5009284;28;20464;-79
2023/08/06 02:25:11;;;;;;;1.50;1.40;;;;;;;;;;5008694;28;20469;-79
2023/08/06 02:27:38;;;;;;;1.23;1.13;;;;;;;;;;5026125;28;20523;-79
2023/08/06 02:30:07;;;;;;;1.20;1.10;;;;;;;;;;5012996;28;20433;-80
2023/08/06 02:32:35;;;;;;;1.20;1.10;;;;;;;;;;5006871;28;20458;-80
2023/08/06 02:35:02;;;;;;;2.50;1.43;;;;;;;;;;5004872;28;20528;-81
2023/08/06 02:37:29;;;;;;;0.90;0.90;;;;;;;;;;5010673;28;20453;-80
2023/08/06 02:39:56;;;;;;;1.50;1.00;;;;;;;;;;5013187;28;20457;-79
2023/08/06 02:42:23;;;;;;;0.70;0.70;;;;;;;;;;5014231;28;20542;-80
2023/08/06 02:44:50;;;;;;;1.33;0.80;;;;;;;;;;5012875;28;20483;-80
2023/08/06 02:47:18;;;;;;;1.23;1.13;;;;;;;;;;4995968;28;20451;-79
2023/08/06 02:49:45;;;;;;;0.73;0.70;;;;;;;;;;5008207;28;20480;-80
2023/08/06 02:52:11;;;;;;;1.23;1.13;;;;;;;;;;5005806;28;20464;-80
2023/08/06 02:54:38;;;;;;;1.20;1.10;;;;;;;;;;5006912;28;20451;-81
2023/08/06 02:57:06;;;;;;;1.13;0.90;;;;;;;;;;5010325;28;20511;-79
2023/08/06 02:59:34;;;;;;;1.27;1.00;;;;;;;;;;4996906;28;20464;-77
2023/08/06 03:02:11;;;;;;;1.87;0.90;;;;;;;;;;5011168;28;20962;-76
2023/08/06 03:04:48;;;;;;;0.90;0.77;;;;;;;;;;4993024;28;20829;-77
2023/08/06 03:07:18;;;;;;;0.70;0.60;;;;;;;;;;5021116;28;20931;-77
2023/08/06 03:09:52;;;;;;;1.40;1.30;;;;;;;;;;5010196;28;20440;-76
2023/08/06 03:12:20;;;;;;;0.80;0.80;;;;;;;;;;5006211;28;21045;-77
2023/08/06 03:14:47;;;;;;;2.37;1.07;;;;;;;;;;4994447;28;20431;-77
2023/08/06 03:17:15;;;;;;;0.90;0.87;;;;;;;;;;4992240;28;20927;-77
2023/08/06 03:19:42;;;;;;;0.70;0.60;;;;;;;;;;5026454;28;20433;-78
2023/08/06 03:22:11;;;;;;;1.37;1.23;;;;;;;;;;5007800;28;20831;-77
2023/08/06 03:24:39;;;;;;;1.27;1.17;;;;;;;;;;4997589;28;20442;-78
2023/08/06 03:27:06;;;;;;;1.23;1.13;;;;;;;;;;5011009;28;20502;-78
2023/08/06 03:29:34;;;;;;;1.63;0.90;;;;;;;;;;5012655;28;20464;-76
2023/08/06 03:32:01;;;;;;;0.90;0.83;;;;;;;;;;5006762;28;20444;-77
2023/08/06 03:34:28;;;;;;;0.70;0.60;;;;;;;;;;5010421;28;20807;-77
2023/08/06 03:36:54;;;;;;;0.87;0.87;;;;;;;;;;5024795;28;20945;-77
2023/08/06 03:39:22;;;;;;;0.70;0.70;;;;;;;;;;5007419;28;20477;-77
2023/08/06 03:41:49;;;;;;;1.47;1.37;;;;;;;;;;5023914;28;20433;-77
2023/08/06 03:44:17;;;;;;;0.90;0.80;;;;;;;;;;5007091;28;20432;-77
2023/08/06 03:46:44;;;;;;;0.93;0.83;;;;;;;;;;5023903;28;20470;-77
2023/08/06 03:49:11;;;;;;;0.90;0.90;;;;;;;;;;5028543;28;20996;-77
2023/08/06 03:51:37;;;;;;;0.67;0.63;;;;;;;;;;4996792;28;20445;-77
2023/08/06 03:54:04;;;;;;;1.00;0.73;;;;;;;;;;5028804;28;20488;-76
2023/08/06 03:56:32;;;;;;;1.10;1.00;;;;;;;;;;5015056;28;20852;-76
2023/08/06 03:58:59;;;;;;;1.10;1.00;;;;;;;;;;5015292;28;20432;-78
2023/08/06 04:01:25;;;;;;;0.83;0.83;;;;;;;;;;5012115;28;20532;-76
2023/08/06 04:03:53;;;;;;;1.37;1.07;;;;;;;;;;5015163;28;20507;-75
2023/08/06 04:06:19;;;;;;;1.20;1.00;;;;;;;;;;5014746;28;20470;-76
2023/08/06 04:08:46;;;;;;;1.57;1.23;;;;;;;;;;5011037;28;21027;-75
2023/08/06 04:11:13;;;;;;;1.10;0.80;;;;;;;;;;5009581;28;20968;-75
2023/08/06 04:13:44;;;;;;;0.77;0.77;;;;;;;;;;5028548;28;20449;-75
2023/08/06 04:16:10;;;;;;;0.77;0.70;;;;;;;;;;5027265;28;20923;-75
2023/08/06 04:18:37;;;;;;;0.80;0.80;;;;;;;;;;5008084;28;20495;-75
2023/08/06 04:21:04;;;;;;;0.70;0.63;;;;;;;;;;5014269;28;20460;-75
2023/08/06 04:23:30;;;;;;;0.77;0.77;;;;;;;;;;5005659;28;20461;-74
2023/08/06 04:26:01;;;;;;;1.10;0.80;;;;;;;;;;5013807;28;20988;-75
2023/08/06 04:28:32;;;;;;;0.70;0.70;;;;;;;;;;5008234;28;20938;-77
2023/08/06 04:31:00;;;;;;;0.80;0.80;;;;;;;;;;5013791;28;20459;-73
2023/08/06 04:33:29;;;;;;;0.90;0.80;;;;;;;;;;5013736;28;20429;-75
2023/08/06 04:35:59;;;;;;;0.97;0.97;;;;;;;;;;5014645;28;20448;-75
2023/08/06 04:38:26;;;;;;;0.80;0.73;;;;;;;;;;4999381;28;20554;-74
2023/08/06 04:40:54;;;;;;;0.93;0.73;;;;;;;;;;5025223;28;20433;-75
2023/08/06 04:43:21;;;;;;;1.20;1.13;;;;;;;;;;5006369;28;20441;-75
2023/08/06 04:45:49;;;;;;;0.80;0.80;;;;;;;;;;5022647;28;20477;-74
2023/08/06 04:48:17;;;;;;;0.70;0.60;;;;;;;;;;5011039;28;20440;-74
2023/08/06 04:50:44;;;;;;;1.90;1.80;;;;;;;;;;5013728;28;20662;-76
2023/08/06 04:53:11;;;;;;;0.80;0.80;;;;;;;;;;5024753;28;20516;-74
2023/08/06 04:55:38;;;;;;;1.17;0.90;;;;;;;;;;5014213;28;20449;-76
2023/08/06 04:58:05;;;;;;;0.70;0.67;;;;;;;;;;5025942;28;20438;-75
2023/08/06 05:00:33;;;;;;;0.63;0.60;;;;;;;;;;5026471;28;20989;-76
2023/08/06 05:03:00;;;;;;;0.70;0.70;;;;;;;;;;5025743;28;20449;-75
2023/08/06 05:05:28;;;;;;;0.80;0.70;;;;;;;;;;4988324;28;20488;-76
2023/08/06 05:07:58;;;;;;;0.70;0.60;;;;;;;;;;5012830;28;20555;-74
2023/08/06 05:10:25;;;;;;;1.13;1.00;;;;;;;;;;5023719;28;20452;-77
2023/08/06 05:12:52;;;;;;;1.00;0.90;;;;;;;;;;5026406;28;20459;-76
2023/08/06 05:15:19;;;;;;;0.87;0.87;;;;;;;;;;5031164;28;20535;-73
2023/08/06 05:17:45;;;;;;;0.70;0.70;;;;;;;;;;5012156;28;20532;-76
2023/08/06 05:20:12;;;;;;;1.57;0.70;;;;;;;;;;5013231;28;20463;-76
2023/08/06 05:22:40;;;;;;;1.10;1.00;;;;;;;;;;5012737;28;20471;-76
2023/08/06 05:25:07;;;;;;;1.13;1.03;;;;;;;;;;5010989;28;20434;-76
2023/08/06 05:27:34;;;;;;;1.17;1.07;;;;;;;;;;5023914;28;20451;-76
2023/08/06 05:30:01;;;;;;;1.17;1.07;;;;;;;;;;5022262;28;20986;-75
2023/08/06 05:32:28;;;;;;;0.70;0.70;;;;;;;;;;5009181;28;20445;-74
2023/08/06 05:34:54;;;;;;;0.80;0.80;;;;;;;;;;5011538;28;20458;-76
2023/08/06 05:37:21;;;;;;;0.80;0.80;;;;;;;;;;4997164;28;20814;-76
2023/08/06 05:39:49;;;;;;;4.00;2.10;;;;;;;;;;5012222;28;20498;-73
2023/08/06 05:42:16;;;;;;;0.87;0.80;;;;;;;;;;5007726;28;20460;-73
2023/08/06 05:44:42;;;;;;;0.90;0.80;;;;;;;;;;5012305;28;20487;-75
2023/08/06 05:47:09;;;;;;;0.70;0.60;;;;;;;;;;5024364;28;20530;-77
2023/08/06 05:49:36;;;;;;;0.70;0.70;;;;;;;;;;4996141;28;20468;-77
2023/08/06 05:52:06;;;;;;;1.00;0.70;;;;;;;;;;4991526;28;20443;-75
2023/08/06 05:54:32;;;;;;;0.70;0.63;;;;;;;;;;5023091;28;20441;-74
2023/08/06 05:57:00;;;;;;;0.60;0.60;;;;;;;;;;5014322;28;20433;-76
2023/08/06 05:59:27;;;;;;;0.70;0.70;;;;;;;;;;5023584;28;20514;-75
2023/08/06 06:01:54;;;;;;;1.00;1.00;;;;;;;;;;5023579;28;20504;-75
2023/08/06 06:04:21;;;;;;;0.67;0.60;;;;;;;;;;5013071;28;20534;-76
2023/08/06 06:06:48;;;;;;;1.00;0.90;;;;;;;;;;5012257;28;20530;-75
2023/08/06 06:09:14;;;;;;;0.67;0.60;;;;;;;;;;5023815;28;20573;-75
2023/08/06 06:11:41;;;;;;;0.70;0.70;;;;;;;;;;5023405;28;20524;-74
2023/08/06 06:14:09;;;;;;;0.90;0.83;;;;;;;;;;5011731;28;20536;-76
2023/08/06 06:16:36;;;;;;;0.70;0.70;;;;;;;;;;4997115;28;20473;-74
2023/08/06 06:19:06;;;;;;;0.80;0.80;;;;;;;;;;5027253;28;20447;-73
2023/08/06 06:21:32;;;;;;;0.90;0.90;;;;;;;;;;5007204;28;20479;-76
2023/08/06 06:23:59;;;;;;;1.20;1.10;;;;;;;;;;5011100;28;20579;-75
2023/08/06 06:26:26;;;;;;;0.80;0.80;;;;;;;;;;5024683;28;20988;-75
2023/08/06 06:28:52;;;;;;;1.87;1.77;;;;;;;;;;5007616;28;20528;-74
2023/08/06 06:31:20;;;;;;;0.83;0.77;;;;;;;;;;5023216;28;20443;-73
2023/08/06 06:33:47;;;;;;;0.70;0.70;;;;;;;;;;5011546;28;20548;-75
2023/08/06 06:36:14;;;;;;;0.60;0.60;;;;;;;;;;5005955;28;20442;-75
2023/08/06 06:38:40;;;;;;;0.77;0.77;;;;;;;;;;5013460;28;20457;-78
2023/08/06 06:41:07;;;;;;;0.80;0.80;;;;;;;;;;5010558;28;20530;-76
2023/08/06 06:43:34;;;;;;;1.20;1.10;;;;;;;;;;5026000;28;20435;-75
2023/08/06 06:46:01;;;;;;;0.80;0.80;;;;;;;;;;5024309;28;20473;-75
2023/08/06 06:48:29;;;;;;;0.90;0.70;;;;;;;;;;5023062;28;20467;-75
2023/08/06 06:50:56;;;;;;;0.70;0.60;;;;;;;;;;5021377;28;20929;-76
2023/08/06 06:53:27;;;;;;;2.80;1.40;;;;;;;;;;4995407;28;20498;-78
2023/08/06 06:55:54;;;;;;;0.60;0.60;;;;;;;;;;5011604;28;20846;-75
2023/08/06 06:58:20;;;;;;;0.90;0.90;;;;;;;;;;5012183;28;20450;-73
2023/08/06 07:00:47;;;;;;;1.07;1.00;;;;;;;;;;5023035;28;20429;-76
2023/08/06 07:03:16;;;;;;;0.70;0.63;;;;;;;;;;5012323;28;20789;-76
2023/08/06 07:05:44;;;;;;;0.70;0.70;;;;;;;;;;5007034;28;20442;-77
2023/08/06 07:08:11;;;;;;;0.80;0.80;;;;;;;;;;5022436;28;20515;-77
2023/08/06 07:10:37;;;;;;;0.70;0.60;;;;;;;;;;5007028;28;20488;-77
2023/08/06 07:13:06;;;;;;;0.70;0.70;;;;;;;;;;5009348;28;20433;-76
2023/08/06 07:15:33;;;;;;;0.70;0.60;;;;;;;;;;5019070;28;20489;-76
2023/08/06 07:18:01;;;;;;;0.70;0.70;;;;;;;;;;5009501;28;20449;-76
2023/08/06 07:20:32;;;;;;;0.70;0.70;;;;;;;;;;5016433;28;20946;-76
2023/08/06 07:23:01;;;;;;;0.70;0.70;;;;;;;;;;5023645;28;20457;-75
2023/08/06 07:25:28;;;;;;;0.60;0.60;;;;;;;;;;5010210;28;20438;-75
2023/08/06 07:27:56;;;;;;;0.70;0.70;;;;;;;;;;4992004;28;20466;-77
2023/08/06 07:30:23;;;;;;;0.70;0.70;;;;;;;;;;5006944;28;20435;-76
2023/08/06 07:32:50;;;;;;;0.70;0.63;;;;;;;;;;5016635;28;20428;-76
2023/08/06 07:35:16;;;;;;;0.80;0.80;;;;;;;;;;5016884;28;20445;-76
2023/08/06 07:37:43;;;;;;;0.70;0.70;;;;;;;;;;5014676;28;20464;-76
2023/08/06 07:40:12;;;;;;;0.70;0.70;;;;;;;;;;5025093;28;20445;-75
2023/08/06 07:42:38;;;;;;;0.73;0.70;;;;;;;;;;5006455;28;20498;-76
2023/08/06 07:45:07;;;;;;;0.60;0.60;;;;;;;;;;5016546;28;20467;-75
2023/08/06 07:47:34;;;;;;;0.70;0.70;;;;;;;;;;5015169;28;20470;-76
2023/08/06 07:50:00;;;;;;;0.67;0.60;;;;;;;;;;5009450;28;20461;-76
2023/08/06 07:52:27;;;;;;;0.80;0.80;;;;;;;;;;5026821;28;20494;-77
2023/08/06 07:54:53;;;;;;;0.70;0.60;;;;;;;;;;5023911;28;20559;-76
2023/08/06 07:57:22;;;;;;;0.90;0.90;;;;;;;;;;5027037;28;20437;-76
2023/08/06 07:59:48;;;;;;;0.70;0.60;;;;;;;;;;5013896;28;20547;-74
2023/08/06 08:02:15;;;;;;;0.67;0.60;;;;;;;;;;5026356;28;20499;-78
2023/08/06 08:04:42;;;;;;;0.70;0.70;;;;;;;;;;5016236;28;20421;-74
2023/08/06 08:07:09;;;;;;;0.67;0.60;;;;;;;;;;5024275;28;20997;-75
2023/08/06 08:09:36;;;;;;;0.60;0.60;;;;;;;;;;5006414;28;20459;-76
2023/08/06 08:12:03;;;;;;;0.70;0.70;;;;;;;;;;5023980;28;20442;-76
2023/08/06 08:14:35;;;;;;;1.53;0.73;;;;;;;;;;5027476;28;20548;-76
2023/08/06 08:17:02;;;;;;;0.70;0.60;;;;;;;;;;4997333;28;20441;-76
2023/08/06 08:19:29;;;;;;;0.70;0.70;;;;;;;;;;5015439;28;20528;-76
2023/08/06 08:21:55;;;;;;;0.70;0.67;;;;;;;;;;5015832;28;20552;-77
2023/08/06 08:24:23;;;;;;;0.90;0.90;;;;;;;;;;5006806;28;20934;-76
2023/08/06 08:26:50;;;;;;;0.70;0.63;;;;;;;;;;5015325;28;20881;-77
2023/08/06 08:29:17;;;;;;;0.87;0.80;;;;;;;;;;5026367;28;20538;-76
2023/08/06 08:31:45;;;;;;;0.67;0.60;;;;;;;;;;5029464;28;20442;-75
2023/08/06 08:34:12;;;;;;;0.70;0.60;;;;;;;;;;5014339;28;20440;-75
2023/08/06 08:36:38;;;;;;;0.70;0.63;;;;;;;;;;4998820;28;20515;-76
2023/08/06 08:39:05;;;;;;;0.70;0.67;;;;;;;;;;5010571;28;20471;-76
2023/08/06 08:41:32;;;;;;;0.70;0.70;;;;;;;;;;5012362;28;20883;-77
2023/08/06 08:44:00;;;;;;;0.90;0.70;;;;;;;;;;5024414;28;20530;-76
2023/08/06 08:46:28;;;;;;;0.70;0.70;;;;;;;;;;5025107;28;20853;-77
2023/08/06 08:48:56;;;;;;;0.70;0.70;;;;;;;;;;5026322;28;20460;-76
2023/08/06 08:51:23;;;;;;;0.63;0.60;;;;;;;;;;5015661;28;20436;-77
2023/08/06 08:53:51;;;;;;;0.83;0.83;;;;;;;;;;5031604;28;20456;-79
2023/08/06 08:56:19;;;;;;;0.70;0.70;;;;;;;;;;5026889;28;20418;-78
2023/08/06 08:58:45;;;;;;;0.70;0.63;;;;;;;;;;5015649;28;20547;-76
2023/08/06 09:01:12;;;;;;;0.70;0.60;;;;;;;;;;5028914;28;20797;-79
2023/08/06 09:03:40;;;;;;;0.70;0.60;;;;;;;;;;5024439;28;20775;-79
2023/08/06 09:06:11;;;;;;;1.17;1.07;;;;;;;;;;5014729;28;20432;-77
2023/08/06 09:08:40;;;;;;;1.40;0.80;;;;;;;;;;5012407;28;20489;-77
2023/08/06 09:11:08;;;;;;;0.70;0.60;;;;;;;;;;5024409;28;20580;-78
2023/08/06 09:13:35;;;;;;;0.80;0.77;;;;;;;;;;5011524;28;20457;-77
2023/08/06 09:16:02;;;;;;;0.80;0.80;;;;;;;;;;5010988;28;20476;-78
2023/08/06 09:18:29;;;;;;;0.70;0.70;;;;;;;;;;5025350;28;20448;-77
2023/08/06 09:20:56;;;;;;;1.13;1.03;;;;;;;;;;5014136;28;20508;-78
2023/08/06 09:23:33;;;;;;;0.83;0.83;;;;;;;;;;5008609;28;21042;-78
2023/08/06 09:26:00;;;;;;;0.73;0.70;;;;;;;;;;5023438;28;20420;-78
2023/08/06 09:28:36;;;;;;;0.70;0.60;;;;;;;;;;5012283;28;20535;-78
2023/08/06 09:31:02;;;;;;;0.70;0.70;;;;;;;;;;5026412;28;20430;-78
2023/08/06 09:33:29;;;;;;;0.70;0.60;;;;;;;;;;5014175;28;20418;-78
2023/08/06 09:35:55;;;;;;;0.80;0.70;;;;;;;;;;5012805;28;20453;-75
2023/08/06 09:38:22;;;;;;;1.53;1.27;;;;;;;;;;5027967;28;20456;-77
2023/08/06 09:40:50;;;;;;;1.30;1.20;;;;;;;;;;5021604;28;20444;-76
2023/08/06 09:43:18;;;;;;;0.80;0.77;;;;;;;;;;5031236;28;20807;-76
2023/08/06 09:45:45;;;;;;;0.90;0.90;;;;;;;;;;5024155;28;20440;-76
2023/08/06 09:48:12;;;;;;;0.70;0.70;;;;;;;;;;5023474;28;20468;-77
2023/08/06 09:50:39;;;;;;;6.83;1.03;;;;;;;;;;4996684;28;20433;-75
2023/08/06 09:53:06;;;;;;;0.70;0.70;;;;;;;;;;5022607;28;20495;-76
2023/08/06 09:55:33;;;;;;;1.00;0.90;;;;;;;;;;5013091;28;20540;-73
2023/08/06 09:58:01;;;;;;;0.70;0.70;;;;;;;;;;5011982;28;20460;-77
2023/08/06 10:00:29;;;;;;;0.80;0.80;;;;;;;;;;5013420;28;20448;-75
2023/08/06 10:02:59;;;;;;;1.30;1.13;;;;;;;;;;5011054;28;20864;-76
2023/08/06 10:05:26;;;;;;;0.70;0.60;;;;;;;;;;5012195;28;20819;-76
2023/08/06 10:07:55;;;;;;;0.70;0.60;;;;;;;;;;5023366;28;20563;-76
2023/08/06 10:10:22;;;;;;;0.70;0.60;;;;;;;;;;5021701;28;20919;-76
2023/08/06 10:12:52;;;;;;;0.70;0.60;;;;;;;;;;5008147;28;20437;-75
2023/08/06 10:15:21;;;;;;;0.70;0.60;;;;;;;;;;5008623;28;20440;-76
2023/08/06 10:17:51;;;;;;;0.73;0.73;;;;;;;;;;5022726;28;20421;-76
2023/08/06 10:20:18;;;;;;;0.70;0.60;;;;;;;;;;5007420;28;20449;-77
2023/08/06 10:22:45;;;;;;;0.70;0.70;;;;;;;;;;5012444;28;20497;-76
2023/08/06 10:25:16;;;;;;;0.70;0.50;;;;;;;;;;5023971;28;20909;-74
2023/08/06 10:27:53;;;;;;;0.70;0.50;;;;;;;;;;5023146;28;20470;-76
2023/08/06 10:30:25;;;;;;;0.70;0.60;;;;;;;;;;5010983;28;20421;-77
2023/08/06 10:32:52;;;;;;;0.70;0.50;;;;;;;;;;5021433;28;20423;-76
2023/08/06 10:35:32;;;;;;;0.70;0.50;;;;;;;;;;5007033;28;20908;-78
2023/08/06 10:37:59;;;;;;;0.70;0.50;;;;;;;;;;5011164;28;20500;-76
2023/08/06 10:40:26;;;;;;;0.70;0.50;;;;;;;;;;5024524;28;20415;-77
2023/08/06 10:42:53;;;;;;;0.70;0.70;;;;;;;;;;5013642;28;20208;-78
2023/08/06 10:45:19;;;;;;;;;;;;;;;;;;5012256;28;20940;-77
2023/08/06 10:47:45;;;;;;;;;;;;;;;;;;5013576;28;20354;-75
2023/08/06 10:50:16;;;;;;;0.80;0.70;;;;;;;;;;5004715;28;20211;-78
2023/08/06 10:52:43;;;;;;;;;;;;;;;;;;5011532;28;20367;-77
2023/08/06 10:55:10;;;;;;;0.70;0.67;;;;;;;;;;5017396;28;20211;-75
2023/08/06 10:57:37;;;;;;;0.60;0.60;;;;;;;;;;5008976;28;20460;-76
2023/08/06 11:00:04;;;;;;;0.70;0.60;;;;;;;;;;5030296;28;20464;-75
2023/08/06 11:02:46;;;;;;;;;;;;;;;;;;5012378;28;20288;-78
2023/08/06 11:05:14;;;;;;;0.70;0.60;;;;;;;;;;5025249;28;20208;-74
2023/08/06 11:07:41;;;;;;;0.70;0.70;;;;;;;;;;5012963;28;20475;-77
2023/08/06 11:10:09;;;;;;;0.70;0.60;;;;;;;;;;5017592;28;20432;-75
2023/08/06 11:12:36;;;;;;;0.70;0.63;;;;;;;;;;5018185;28;20983;-77
2023/08/06 11:15:05;;;;;;;0.63;0.60;;;;;;;;;;5029400;28;20440;-76
2023/08/06 11:17:32;;;;;;;0.80;0.73;;;;;;;;;;5018260;28;20960;-76
2023/08/06 11:20:00;;;;;;;0.70;0.70;;;;;;;;;;5029188;28;20448;-76
2023/08/06 11:22:26;;;;;;;;;;;;;;;;;;5017415;28;20346;-74
2023/08/06 11:24:55;;;;;;;0.90;0.80;;;;;;;;;;5016713;28;20400;-74
2023/08/06 11:27:21;;;;;;;0.80;0.60;;;;;;;;;;5015486;28;20430;-75
2023/08/06 11:29:48;;;;;;;1.00;0.70;;;;;;;;;;5025757;28;20501;-77
2023/08/06 11:32:14;;;;;;;0.60;0.60;;;;;;;;;;5017027;28;20232;-77
2023/08/06 11:34:43;;;;;;;0.70;0.60;;;;;;;;;;5017299;28;20432;-76
2023/08/06 11:37:10;;;;;;;0.63;0.60;;;;;;;;;;5011339;28;20631;-76
2023/08/06 11:39:38;;;;;;;0.70;0.70;;;;;;;;;;5006082;28;20486;-76
2023/08/06 11:42:06;;;;;;;0.67;0.60;;;;;;;;;;5021701;28;20444;-74
2023/08/06 11:44:35;;;;;;;1.07;1.07;;;;;;;;;;5026923;28;20437;-75
2023/08/06 11:47:02;;;;;;;0.87;0.70;;;;;;;;;;5008509;28;20446;-76
2023/08/06 11:49:44;;;;;;;0.70;0.70;;;;;;;;;;5026396;28;20468;-76
2023/08/06 11:52:12;;;;;;;1.93;1.63;;;;;;;;;;5007321;28;20471;-74
2023/08/06 11:54:39;;;;;;;1.10;0.80;;;;;;;;;;5015257;28;20449;-76
2023/08/06 11:57:07;;;;;;;1.00;0.80;;;;;;;;;;4998951;28;20198;-76
2023/08/06 11:59:34;;;;;;;0.60;0.60;;;;;;;;;;5030575;28;20437;-78
2023/08/06 12:02:01;;;;;;;;;;;;;;;;;;5016847;28;20863;-76
2023/08/06 12:04:27;;;;;;;;;;;;;;;;;;5014860;28;20509;-76
2023/08/06 12:06:54;;;;;;;1.20;0.70;;;;;;;;;;4994210;28;20512;-80
2023/08/06 12:09:21;;;;;;;0.67;0.60;;;;;;;;;;5011271;28;20237;-80
2023/08/06 12:11:47;;;;;;;;;;;;;;;;;;5017644;28;20689;-83
2023/08/06 12:14:15;;;;;;;0.60;0.60;;;;;;;;;;5016243;28;20226;-75
2023/08/06 12:16:42;;;;;;;0.70;0.70;;;;;;;;;;5013527;28;20487;-77
2023/08/06 12:19:09;;;;;;;0.60;0.60;;;;;;;;;;4990768;28;20548;-77
2023/08/06 12:21:35;;;;;;;0.70;0.70;;;;;;;;;;5010738;28;20433;-76
2023/08/06 12:24:02;;;;;;;0.60;0.60;;;;;;;;;;5014590;28;21022;-75
2023/08/06 12:26:29;;;;;;;0.70;0.67;;;;;;;;;;5009700;28;20461;-76
2023/08/06 12:28:57;;;;;;;0.70;0.60;;;;;;;;;;5013246;28;21009;-77
2023/08/06 12:31:25;;;;;;;0.67;0.60;;;;;;;;;;5028498;28;20433;-73
2023/08/06 12:33:51;;;;;;;0.70;0.63;;;;;;;;;;5011930;28;20541;-77
2023/08/06 12:36:18;;;;;;;0.67;0.60;;;;;;;;;;5012417;28;21281;-74
2023/08/06 12:38:45;;;;;;;0.60;0.60;;;;;;;;;;5015882;28;20542;-77
2023/08/06 12:41:11;;;;;;;0.70;0.60;;;;;;;;;;4998512;28;20503;-74
2023/08/06 12:43:38;;;;;;;0.70;0.70;;;;;;;;;;5009223;28;20792;-74
2023/08/06 12:46:05;;;;;;;0.70;0.70;;;;;;;;;;5022294;28;20836;-76
2023/08/06 12:48:33;;;;;;;0.70;0.60;;;;;;;;;;5025622;28;20463;-76
2023/08/06 12:50:59;;;;;;;0.77;0.77;;;;;;;;;;5027492;28;20425;-73
2023/08/06 12:53:26;;;;;;;0.63;0.60;;;;;;;;;;5010118;28;20900;-75
2023/08/06 12:55:53;;;;;;;0.70;0.70;;;;;;;;;;5014776;28;20473;-77
2023/08/06 12:58:19;;;;;;;0.73;0.73;;;;;;;;;;5015595;28;20449;-74
2023/08/06 13:00:46;;;;;;;0.80;0.80;;;;;;;;;;5011069;28;20952;-76
2023/08/06 13:03:13;;;;;;;1.20;0.80;;;;;;;;;;5022898;28;20541;-76
2023/08/06 13:05:41;;;;;;;0.80;0.80;;;;;;;;;;5013396;28;20436;-74
2023/08/06 13:08:07;;;;;;;0.60;0.60;;;;;;;;;;5021275;28;20962;-76
2023/08/06 13:10:34;;;;;;;0.67;0.60;;;;;;;;;;5009927;28;20440;-75
2023/08/06 13:13:01;;;;;;;0.90;0.70;;;;;;;;;;5008062;28;20463;-74
2023/08/06 13:15:27;;;;;;;0.70;0.70;;;;;;;;;;5014172;28;20198;-76
2023/08/06 13:17:54;;;;;;;0.80;0.80;;;;;;;;;;5025216;28;20463;-78
2023/08/06 13:20:22;;;;;;;1.37;1.20;;;;;;;;;;5004499;28;20448;-75
2023/08/06 13:22:53;;;;;;;0.90;0.77;;;;;;;;;;5012542;28;20576;-73
2023/08/06 13:25:20;;;;;;;3.30;1.50;;;;;;;;;;4996191;28;20449;-75
2023/08/06 13:27:47;;;;;;;1.07;0.97;;;;;;;;;;4996182;28;20477;-76
2023/08/06 13:30:14;;;;;;;0.70;0.70;;;;;;;;;;5023196;28;20524;-74
2023/08/06 13:32:41;;;;;;;0.73;0.73;;;;;;;;;;5022205;28;20461;-75
2023/08/06 13:35:08;;;;;;;0.70;0.70;;;;;;;;;;5007727;28;20455;-75
2023/08/06 13:37:35;;;;;;;0.70;0.70;;;;;;;;;;5008524;28;20445;-75
2023/08/06 13:40:03;;;;;;;0.80;0.50;;;;;;;;;;5008415;28;20407;-79
2023/08/06 13:42:32;;;;;;;0.80;0.60;;;;;;;;;;5014838;28;20498;-78
2023/08/06 13:45:02;;;;;;;0.97;0.97;;;;;;;;;;5014659;28;20205;-76
2023/08/06 13:47:29;;;;;;;0.80;0.80;;;;;;;;;;5028599;28;20492;-76
2023/08/06 13:49:56;;;;;;;0.70;0.70;;;;;;;;;;5013166;28;20472;-77
2023/08/06 13:52:22;;;;;;;0.70;0.60;;;;;;;;;;5012623;28;20943;-76
2023/08/06 13:54:49;;;;;;;0.70;0.60;;;;;;;;;;5025185;28;21361;-76
2023/08/06 13:57:17;;;;;;;0.90;0.90;;;;;;;;;;5028696;28;20439;-77
2023/08/06 13:59:44;;;;;;;0.70;0.60;;;;;;;;;;5013869;28;20987;-75
2023/08/06 14:02:11;;;;;;;1.10;1.00;;;;;;;;;;5025296;28;20408;-75
2023/08/06 14:04:39;;;;;;;1.30;1.20;;;;;;;;;;5013784;28;20449;-76
2023/08/06 14:07:06;;;;;;;0.80;0.80;;;;;;;;;;5025994;28;20798;-74
2023/08/06 14:09:34;;;;;;;0.70;0.60;;;;;;;;;;5023935;28;20467;-75
2023/08/06 14:12:01;;;;;;;0.87;0.87;;;;;;;;;;5012928;28;20463;-76
2023/08/06 14:14:29;;;;;;;0.80;0.80;;;;;;;;;;5022937;28;20944;-76
2023/08/06 14:16:55;;;;;;;0.80;0.70;;;;;;;;;;5009788;28;20423;-75
2023/08/06 14:19:23;;;;;;;2.63;1.53;;;;;;;;;;5009168;28;20463;-76
2023/08/06 14:21:50;;;;;;;1.27;1.15;;;;;;;;;;4988691;28;20501;-75
2023/08/06 14:24:17;;;;;;;0.87;0.87;;;;;;;;;;5026345;28;20267;-72
2023/08/06 14:26:44;;;;;;;1.13;1.00;;;;;;;;;;5011145;28;20520;-77
2023/08/06 14:29:11;;;;;;;0.70;0.70;;;;;;;;;;5012807;28;20475;-74
2023/08/06 14:31:39;;;;;;;0.80;0.77;;;;;;;;;;5011224;28;20804;-78
2023/08/06 14:34:06;;;;;;;0.90;0.70;;;;;;;;;;5013267;28;20987;-76
2023/08/06 14:36:33;;;;;;;0.77;0.70;;;;;;;;;;5027472;28;20284;-77
2023/08/06 14:38:59;;;;;;;0.80;0.80;;;;;;;;;;5019812;28;20454;-75
2023/08/06 14:41:26;;;;;;;0.73;0.67;;;;;;;;;;5012372;28;20463;-74
2023/08/06 14:43:54;;;;;;;0.70;0.70;;;;;;;;;;5026839;28;20473;-75
2023/08/06 14:46:21;;;;;;;0.70;0.70;;;;;;;;;;5012267;28;20533;-75